sensor_id;sensor_type;location;lat;lon;timestamp;temperature;humidity
13310;DHT22;6723;48.256;16.402;2023-02-19T00:01:30;12.90;99.90
13310;DHT22;6723;48.256;16.402;2023-02-19T00:04:02;12.90;99.90
13310;DHT22;6723;48.256;16.402;2023-02-19T00:06:30;12.90;99.90
13310;DHT22;6723;48.256;16.402;2023-02-19T00:08:56;12.80;99.90
13310;DHT22;6723;48.256;16.402;2023-02-19T00:11:25;12.90;99.90
13310;DHT22;6723;48.256;16.402;2023-02-19T00:13:53;12.80;99.90
13310;DHT22;6723;48.256;16.402;2023-02-19T00:16:32;12.80;99.90
13310;DHT22;6723;48.256;16.402;2023-02-19T00:18:59;12.80;99.90
13310;DHT22;6723;48.256;16.402;2023-02-19T00:21:26;12.80;99.90
13310;DHT22;6723;48.256;16.402;2023-02-19T00:24:01;12.80;99.90
13310;DHT22;6723;48.256;16.402;2023-02-19T00:26:28;12.80;99.90
13310;DHT22;6723;48.256;16.402;2023-02-19T00:28:56;12.80;99.90
13310;DHT22;6723;48.256;16.402;2023-02-19T00:31:36;12.80;99.90
13310;DHT22;6723;48.256;16.402;2023-02-19T00:34:04;12.80;99.90
13310;DHT22;6723;48.256;16.402;2023-02-19T00:36:32;12.70;99.90
13310;DHT22;6723;48.256;16.402;2023-02-19T00:39:01;12.70;99.90
13310;DHT22;6723;48.256;16.402;2023-02-19T00:41:27;12.70;99.90
13310;DHT22;6723;48.256;16.402;2023-02-19T00:44:00;12.70;99.90
13310;DHT22;6723;48.256;16.402;2023-02-19T00:46:38;12.70;99.90
13310;DHT22;6723;48.256;16.402;2023-02-19T00:49:06;12.70;99.90
13310;DHT22;6723;48.256;16.402;2023-02-19T00:51:36;12.70;99.90
13310;DHT22;6723;48.256;16.402;2023-02-19T00:54:04;12.70;99.90
13310;DHT22;6723;48.256;16.402;2023-02-19T00:56:30;12.70;99.90
13310;DHT22;6723;48.256;16.402;2023-02-19T00:58:59;12.70;99.90
13310;DHT22;6723;48.256;16.402;2023-02-19T01:01:25;12.70;99.90
13310;DHT22;6723;48.256;16.402;2023-02-19T01:04:07;12.60;99.90
13310;DHT22;6723;48.256;16.402;2023-02-19T01:06:33;12.70;99.90
13310;DHT22;6723;48.256;16.402;2023-02-19T01:09:00;12.70;99.90
13310;DHT22;6723;48.256;16.402;2023-02-19T01:11:27;12.60;99.90
13310;DHT22;6723;48.256;16.402;2023-02-19T01:13:56;12.60;99.90
13310;DHT22;6723;48.256;16.402;2023-02-19T01:16:23;12.70;99.90
13310;DHT22;6723;48.256;16.402;2023-02-19T01:18:56;12.60;99.90
13310;DHT22;6723;48.256;16.402;2023-02-19T01:21:24;12.60;99.90
13310;DHT22;6723;48.256;16.402;2023-02-19T01:23:52;12.60;99.90
13310;DHT22;6723;48.256;16.402;2023-02-19T01:26:21;12.60;99.90
13310;DHT22;6723;48.256;16.402;2023-02-19T01:28:48;12.60;99.90
13310;DHT22;6723;48.256;16.402;2023-02-19T01:31:19;12.60;99.90
13310;DHT22;6723;48.256;16.402;2023-02-19T01:33:51;12.60;99.90
13310;DHT22;6723;48.256;16.402;2023-02-19T01:36:20;12.60;99.90
13310;DHT22;6723;48.256;16.402;2023-02-19T01:38:46;12.60;99.90
13310;DHT22;6723;48.256;16.402;2023-02-19T01:41:15;12.60;99.90
13310;DHT22;6723;48.256;16.402;2023-02-19T01:46:38;12.50;99.90
13310;DHT22;6723;48.256;16.402;2023-02-19T01:49:09;12.60;99.90
13310;DHT22;6723;48.256;16.402;2023-02-19T01:51:39;12.60;99.90
13310;DHT22;6723;48.256;16.402;2023-02-19T01:54:08;12.60;99.90
13310;DHT22;6723;48.256;16.402;2023-02-19T01:56:37;12.60;99.90
13310;DHT22;6723;48.256;16.402;2023-02-19T01:59:05;12.60;99.90
13310;DHT22;6723;48.256;16.402;2023-02-19T02:01:32;12.60;99.90
13310;DHT22;6723;48.256;16.402;2023-02-19T02:03:58;12.60;99.90
13310;DHT22;6723;48.256;16.402;2023-02-19T02:06:29;12.60;99.90
13310;DHT22;6723;48.256;16.402;2023-02-19T02:08:57;12.70;99.90
13310;DHT22;6723;48.256;16.402;2023-02-19T02:11:48;12.70;99.90
13310;DHT22;6723;48.256;16.402;2023-02-19T02:14:20;12.70;99.90
13310;DHT22;6723;48.256;16.402;2023-02-19T02:17:10;12.70;99.90
13310;DHT22;6723;48.256;16.402;2023-02-19T02:22:35;12.70;99.90
13310;DHT22;6723;48.256;16.402;2023-02-19T02:28:00;12.70;99.90
13310;DHT22;6723;48.256;16.402;2023-02-19T02:30:45;12.70;99.90
13310;DHT22;6723;48.256;16.402;2023-02-19T02:33:38;12.70;99.90
13310;DHT22;6723;48.256;16.402;2023-02-19T02:36:32;12.70;99.90
13310;DHT22;6723;48.256;16.402;2023-02-19T02:38:59;12.70;99.90
13310;DHT22;6723;48.256;16.402;2023-02-19T02:41:28;12.70;99.90
13310;DHT22;6723;48.256;16.402;2023-02-19T02:43:53;12.70;99.90
13310;DHT22;6723;48.256;16.402;2023-02-19T02:46:32;12.70;99.90
13310;DHT22;6723;48.256;16.402;2023-02-19T02:49:04;12.70;99.90
13310;DHT22;6723;48.256;16.402;2023-02-19T02:51:39;12.70;99.90
13310;DHT22;6723;48.256;16.402;2023-02-19T02:54:18;12.70;99.90
13310;DHT22;6723;48.256;16.402;2023-02-19T02:57:04;12.70;99.90
13310;DHT22;6723;48.256;16.402;2023-02-19T02:59:36;12.70;99.90
13310;DHT22;6723;48.256;16.402;2023-02-19T03:02:13;12.60;99.90
13310;DHT22;6723;48.256;16.402;2023-02-19T03:10:18;12.50;99.90
13310;DHT22;6723;48.256;16.402;2023-02-19T03:12:45;12.50;99.90
13310;DHT22;6723;48.256;16.402;2023-02-19T03:15:35;12.50;99.90
13310;DHT22;6723;48.256;16.402;2023-02-19T03:18:22;12.40;99.90
13310;DHT22;6723;48.256;16.402;2023-02-19T03:21:09;12.30;99.90
13310;DHT22;6723;48.256;16.402;2023-02-19T03:23:36;12.30;99.90
13310;DHT22;6723;48.256;16.402;2023-02-19T03:26:21;12.20;99.90
13310;DHT22;6723;48.256;16.402;2023-02-19T03:28:50;12.10;99.90
13310;DHT22;6723;48.256;16.402;2023-02-19T03:31:37;12.00;99.90
13310;DHT22;6723;48.256;16.402;2023-02-19T03:34:09;12.00;99.90
13310;DHT22;6723;48.256;16.402;2023-02-19T03:36:41;11.90;99.90
13310;DHT22;6723;48.256;16.402;2023-02-19T03:39:11;11.90;99.90
13310;DHT22;6723;48.256;16.402;2023-02-19T03:46:53;11.70;99.90
13310;DHT22;6723;48.256;16.402;2023-02-19T03:52:10;11.70;99.90
13310;DHT22;6723;48.256;16.402;2023-02-19T03:57:20;11.70;99.90
13310;DHT22;6723;48.256;16.402;2023-02-19T04:00:11;11.60;99.90
13310;DHT22;6723;48.256;16.402;2023-02-19T04:02:59;11.60;99.90
13310;DHT22;6723;48.256;16.402;2023-02-19T04:05:29;11.50;99.90
13310;DHT22;6723;48.256;16.402;2023-02-19T04:08:09;11.50;99.90
13310;DHT22;6723;48.256;16.402;2023-02-19T04:10:37;11.40;99.90
13310;DHT22;6723;48.256;16.402;2023-02-19T04:13:26;11.40;99.90
13310;DHT22;6723;48.256;16.402;2023-02-19T04:15:59;11.40;99.90
13310;DHT22;6723;48.256;16.402;2023-02-19T04:18:30;11.40;99.90
13310;DHT22;6723;48.256;16.402;2023-02-19T04:20:58;11.40;99.90
13310;DHT22;6723;48.256;16.402;2023-02-19T04:23:29;11.40;99.90
13310;DHT22;6723;48.256;16.402;2023-02-19T04:26:06;11.40;99.90
13310;DHT22;6723;48.256;16.402;2023-02-19T04:28:37;11.40;99.90
13310;DHT22;6723;48.256;16.402;2023-02-19T04:31:03;11.40;99.90
13310;DHT22;6723;48.256;16.402;2023-02-19T04:33:29;11.40;99.90
13310;DHT22;6723;48.256;16.402;2023-02-19T04:35:55;11.30;99.90
13310;DHT22;6723;48.256;16.402;2023-02-19T04:38:21;11.30;99.90
13310;DHT22;6723;48.256;16.402;2023-02-19T04:40:47;11.30;99.90
13310;DHT22;6723;48.256;16.402;2023-02-19T04:46:43;11.20;99.90
13310;DHT22;6723;48.256;16.402;2023-02-19T04:49:34;11.20;99.90
13310;DHT22;6723;48.256;16.402;2023-02-19T05:01:57;11.00;99.90
13310;DHT22;6723;48.256;16.402;2023-02-19T05:04:53;11.00;99.90
13310;DHT22;6723;48.256;16.402;2023-02-19T05:10:58;11.00;99.90
13310;DHT22;6723;48.256;16.402;2023-02-19T05:16:47;11.10;99.90
13310;DHT22;6723;48.256;16.402;2023-02-19T05:19:13;11.10;99.90
13310;DHT22;6723;48.256;16.402;2023-02-19T05:21:39;11.10;99.90
13310;DHT22;6723;48.256;16.402;2023-02-19T05:24:06;11.10;99.90
13310;DHT22;6723;48.256;16.402;2023-02-19T05:26:32;11.10;99.90
13310;DHT22;6723;48.256;16.402;2023-02-19T05:28:59;11.00;99.90
13310;DHT22;6723;48.256;16.402;2023-02-19T05:31:25;11.00;99.90
13310;DHT22;6723;48.256;16.402;2023-02-19T05:33:54;11.00;99.90
13310;DHT22;6723;48.256;16.402;2023-02-19T05:36:21;10.90;99.90
13310;DHT22;6723;48.256;16.402;2023-02-19T05:38:51;10.90;99.90
13310;DHT22;6723;48.256;16.402;2023-02-19T05:41:26;10.90;99.90
13310;DHT22;6723;48.256;16.402;2023-02-19T05:43:54;10.80;99.90
13310;DHT22;6723;48.256;16.402;2023-02-19T05:46:23;10.80;99.90
13310;DHT22;6723;48.256;16.402;2023-02-19T05:48:51;10.80;99.90
13310;DHT22;6723;48.256;16.402;2023-02-19T05:51:19;10.80;99.90
13310;DHT22;6723;48.256;16.402;2023-02-19T05:53:46;10.80;99.90
13310;DHT22;6723;48.256;16.402;2023-02-19T05:56:34;10.90;99.90
13310;DHT22;6723;48.256;16.402;2023-02-19T05:59:21;10.80;99.90
13310;DHT22;6723;48.256;16.402;2023-02-19T06:01:48;10.80;99.90
13310;DHT22;6723;48.256;16.402;2023-02-19T06:04:14;10.80;99.90
13310;DHT22;6723;48.256;16.402;2023-02-19T06:06:41;10.80;99.90
13310;DHT22;6723;48.256;16.402;2023-02-19T06:09:08;10.80;99.90
13310;DHT22;6723;48.256;16.402;2023-02-19T06:11:34;10.80;99.90
13310;DHT22;6723;48.256;16.402;2023-02-19T06:14:01;10.90;99.90
13310;DHT22;6723;48.256;16.402;2023-02-19T06:16:27;10.90;99.90
13310;DHT22;6723;48.256;16.402;2023-02-19T06:18:54;10.80;99.90
13310;DHT22;6723;48.256;16.402;2023-02-19T06:21:20;10.90;99.90
13310;DHT22;6723;48.256;16.402;2023-02-19T06:23:46;10.90;99.90
13310;DHT22;6723;48.256;16.402;2023-02-19T06:26:21;10.90;99.90
13310;DHT22;6723;48.256;16.402;2023-02-19T06:28:48;11.00;99.90
13310;DHT22;6723;48.256;16.402;2023-02-19T06:31:15;11.10;99.90
13310;DHT22;6723;48.256;16.402;2023-02-19T06:33:41;11.10;99.90
13310;DHT22;6723;48.256;16.402;2023-02-19T06:36:18;11.20;99.90
13310;DHT22;6723;48.256;16.402;2023-02-19T06:41:35;11.30;99.90
13310;DHT22;6723;48.256;16.402;2023-02-19T06:44:17;11.40;99.90
13310;DHT22;6723;48.256;16.402;2023-02-19T06:47:02;11.40;99.90
13310;DHT22;6723;48.256;16.402;2023-02-19T06:49:34;11.40;99.90
13310;DHT22;6723;48.256;16.402;2023-02-19T06:51:59;11.50;99.90
13310;DHT22;6723;48.256;16.402;2023-02-19T06:54:26;11.50;99.90
13310;DHT22;6723;48.256;16.402;2023-02-19T06:56:52;11.50;99.90
13310;DHT22;6723;48.256;16.402;2023-02-19T06:59:18;11.50;99.90
13310;DHT22;6723;48.256;16.402;2023-02-19T07:01:44;11.50;99.90
13310;DHT22;6723;48.256;16.402;2023-02-19T07:04:10;11.50;99.90
13310;DHT22;6723;48.256;16.402;2023-02-19T07:06:37;11.50;99.90
13310;DHT22;6723;48.256;16.402;2023-02-19T07:09:05;11.50;99.90
13310;DHT22;6723;48.256;16.402;2023-02-19T07:11:33;11.60;99.90
13310;DHT22;6723;48.256;16.402;2023-02-19T07:14:02;11.60;99.90
13310;DHT22;6723;48.256;16.402;2023-02-19T07:16:28;11.60;99.90
13310;DHT22;6723;48.256;16.402;2023-02-19T07:19:00;11.60;99.90
13310;DHT22;6723;48.256;16.402;2023-02-19T07:21:26;11.70;99.90
13310;DHT22;6723;48.256;16.402;2023-02-19T07:23:53;11.70;99.90
13310;DHT22;6723;48.256;16.402;2023-02-19T07:26:20;11.70;99.90
13310;DHT22;6723;48.256;16.402;2023-02-19T07:28:48;11.70;99.90
13310;DHT22;6723;48.256;16.402;2023-02-19T07:31:15;11.70;99.90
13310;DHT22;6723;48.256;16.402;2023-02-19T07:33:46;11.70;99.90
13310;DHT22;6723;48.256;16.402;2023-02-19T07:36:13;11.80;99.90
13310;DHT22;6723;48.256;16.402;2023-02-19T07:38:40;11.80;99.90
13310;DHT22;6723;48.256;16.402;2023-02-19T07:41:07;11.80;99.90
13310;DHT22;6723;48.256;16.402;2023-02-19T07:43:38;11.80;99.90
13310;DHT22;6723;48.256;16.402;2023-02-19T07:46:06;11.80;99.90
13310;DHT22;6723;48.256;16.402;2023-02-19T07:48:33;11.80;99.90
13310;DHT22;6723;48.256;16.402;2023-02-19T07:51:00;11.80;99.90
13310;DHT22;6723;48.256;16.402;2023-02-19T07:53:27;11.90;99.90
13310;DHT22;6723;48.256;16.402;2023-02-19T07:55:57;11.90;99.90
13310;DHT22;6723;48.256;16.402;2023-02-19T07:58:24;11.90;99.90
13310;DHT22;6723;48.256;16.402;2023-02-19T08:00:50;11.90;99.90
13310;DHT22;6723;48.256;16.402;2023-02-19T08:03:16;11.90;99.90
13310;DHT22;6723;48.256;16.402;2023-02-19T08:05:42;11.90;99.90
13310;DHT22;6723;48.256;16.402;2023-02-19T08:08:12;12.00;99.90
13310;DHT22;6723;48.256;16.402;2023-02-19T08:10:39;12.00;99.90
13310;DHT22;6723;48.256;16.402;2023-02-19T08:13:25;12.10;99.90
13310;DHT22;6723;48.256;16.402;2023-02-19T08:15:53;12.20;99.90
13310;DHT22;6723;48.256;16.402;2023-02-19T08:18:25;12.20;99.90
13310;DHT22;6723;48.256;16.402;2023-02-19T08:20:53;12.30;99.90
13310;DHT22;6723;48.256;16.402;2023-02-19T08:23:19;12.40;99.90
13310;DHT22;6723;48.256;16.402;2023-02-19T08:25:48;12.40;99.90
13310;DHT22;6723;48.256;16.402;2023-02-19T08:28:15;12.90;99.90
13310;DHT22;6723;48.256;16.402;2023-02-19T08:30:43;13.40;99.90
13310;DHT22;6723;48.256;16.402;2023-02-19T08:33:12;13.60;99.90
13310;DHT22;6723;48.256;16.402;2023-02-19T08:35:38;13.70;99.90
13310;DHT22;6723;48.256;16.402;2023-02-19T08:38:05;13.70;99.90
13310;DHT22;6723;48.256;16.402;2023-02-19T08:40:32;13.10;99.90
13310;DHT22;6723;48.256;16.402;2023-02-19T08:43:12;13.10;99.90
13310;DHT22;6723;48.256;16.402;2023-02-19T08:45:42;13.40;99.90
13310;DHT22;6723;48.256;16.402;2023-02-19T08:48:10;12.90;99.90
13310;DHT22;6723;48.256;16.402;2023-02-19T08:50:37;13.00;99.90
13310;DHT22;6723;48.256;16.402;2023-02-19T08:53:04;12.90;99.90
13310;DHT22;6723;48.256;16.402;2023-02-19T08:55:31;13.10;99.90
13310;DHT22;6723;48.256;16.402;2023-02-19T08:57:57;12.90;99.90
13310;DHT22;6723;48.256;16.402;2023-02-19T09:00:23;12.70;99.90
13310;DHT22;6723;48.256;16.402;2023-02-19T09:02:49;12.50;99.90
13310;DHT22;6723;48.256;16.402;2023-02-19T09:05:16;12.50;99.90
13310;DHT22;6723;48.256;16.402;2023-02-19T09:07:42;12.30;99.90
13310;DHT22;6723;48.256;16.402;2023-02-19T09:10:13;12.10;99.90
13310;DHT22;6723;48.256;16.402;2023-02-19T09:12:39;12.20;99.90
13310;DHT22;6723;48.256;16.402;2023-02-19T09:15:05;12.20;99.90
13310;DHT22;6723;48.256;16.402;2023-02-19T09:17:31;13.10;99.90
13310;DHT22;6723;48.256;16.402;2023-02-19T09:19:57;13.90;99.90
13310;DHT22;6723;48.256;16.402;2023-02-19T09:22:23;14.80;99.90
13310;DHT22;6723;48.256;16.402;2023-02-19T09:24:50;15.70;99.90
13310;DHT22;6723;48.256;16.402;2023-02-19T09:27:17;16.60;99.90
13310;DHT22;6723;48.256;16.402;2023-02-19T09:29:43;16.40;99.90
13310;DHT22;6723;48.256;16.402;2023-02-19T09:32:09;16.10;99.90
13310;DHT22;6723;48.256;16.402;2023-02-19T09:34:39;15.40;99.90
13310;DHT22;6723;48.256;16.402;2023-02-19T09:37:07;16.50;99.90
13310;DHT22;6723;48.256;16.402;2023-02-19T09:39:38;17.10;99.90
13310;DHT22;6723;48.256;16.402;2023-02-19T09:44:44;19.00;99.70
13310;DHT22;6723;48.256;16.402;2023-02-19T09:47:22;18.10;98.50
13310;DHT22;6723;48.256;16.402;2023-02-19T09:49:53;17.40;99.30
13310;DHT22;6723;48.256;16.402;2023-02-19T09:52:37;18.80;98.80
13310;DHT22;6723;48.256;16.402;2023-02-19T10:00:51;18.30;97.00
13310;DHT22;6723;48.256;16.402;2023-02-19T10:03:32;17.80;97.30
13310;DHT22;6723;48.256;16.402;2023-02-19T10:06:04;18.10;97.00
13310;DHT22;6723;48.256;16.402;2023-02-19T10:08:33;19.30;95.80
13310;DHT22;6723;48.256;16.402;2023-02-19T10:11:00;19.10;96.10
13310;DHT22;6723;48.256;16.402;2023-02-19T10:13:36;18.80;95.90
13310;DHT22;6723;48.256;16.402;2023-02-19T10:16:10;19.10;95.30
13310;DHT22;6723;48.256;16.402;2023-02-19T10:18:44;19.10;94.90
13310;DHT22;6723;48.256;16.402;2023-02-19T10:21:15;19.10;94.90
13310;DHT22;6723;48.256;16.402;2023-02-19T10:23:42;19.70;95.10
13310;DHT22;6723;48.256;16.402;2023-02-19T10:26:10;19.20;93.90
13310;DHT22;6723;48.256;16.402;2023-02-19T10:28:35;19.10;94.80
13310;DHT22;6723;48.256;16.402;2023-02-19T10:31:16;19.50;93.50
13310;DHT22;6723;48.256;16.402;2023-02-19T10:33:54;19.40;93.40
13310;DHT22;6723;48.256;16.402;2023-02-19T10:36:40;19.90;93.10
13310;DHT22;6723;48.256;16.402;2023-02-19T10:41:48;20.00;92.30
13310;DHT22;6723;48.256;16.402;2023-02-19T10:44:21;20.50;92.10
13310;DHT22;6723;48.256;16.402;2023-02-19T10:46:50;21.10;91.40
13310;DHT22;6723;48.256;16.402;2023-02-19T10:49:29;20.80;91.60
13310;DHT22;6723;48.256;16.402;2023-02-19T10:52:00;22.50;91.20
13310;DHT22;6723;48.256;16.402;2023-02-19T10:54:33;21.90;90.00
13310;DHT22;6723;48.256;16.402;2023-02-19T10:57:27;20.80;90.10
13310;DHT22;6723;48.256;16.402;2023-02-19T11:00:00;20.30;90.40
13310;DHT22;6723;48.256;16.402;2023-02-19T11:02:27;20.60;90.20
13310;DHT22;6723;48.256;16.402;2023-02-19T11:05:05;21.20;90.20
13310;DHT22;6723;48.256;16.402;2023-02-19T11:07:32;20.70;89.10
13310;DHT22;6723;48.256;16.402;2023-02-19T11:09:58;20.10;90.00
13310;DHT22;6723;48.256;16.402;2023-02-19T11:12:29;20.50;90.00
13310;DHT22;6723;48.256;16.402;2023-02-19T11:14:56;20.00;90.40
13310;DHT22;6723;48.256;16.402;2023-02-19T11:17:29;20.30;90.20
13310;DHT22;6723;48.256;16.402;2023-02-19T11:20:15;20.60;89.30
13310;DHT22;6723;48.256;16.402;2023-02-19T11:22:43;20.10;89.60
13310;DHT22;6723;48.256;16.402;2023-02-19T11:35:45;17.60;93.10
13310;DHT22;6723;48.256;16.402;2023-02-19T11:38:14;17.30;93.70
13310;DHT22;6723;48.256;16.402;2023-02-19T11:40:51;16.60;94.60
13310;DHT22;6723;48.256;16.402;2023-02-19T11:49:25;15.70;95.50
13310;DHT22;6723;48.256;16.402;2023-02-19T11:51:47;15.70;95.80
13310;DHT22;6723;48.256;16.402;2023-02-19T12:00:00;15.00;96.60
13310;DHT22;6723;48.256;16.402;2023-02-19T12:10:45;12.90;99.90
13310;DHT22;6723;48.256;16.402;2023-02-19T12:16:18;12.10;99.90
13310;DHT22;6723;48.256;16.402;2023-02-19T12:19:13;12.10;99.90
13310;DHT22;6723;48.256;16.402;2023-02-19T12:21:46;12.20;99.90
13310;DHT22;6723;48.256;16.402;2023-02-19T12:29:47;12.40;99.90
13310;DHT22;6723;48.256;16.402;2023-02-19T12:32:31;12.50;99.90
13310;DHT22;6723;48.256;16.402;2023-02-19T12:43:41;12.70;99.90
13310;DHT22;6723;48.256;16.402;2023-02-19T12:51:11;12.90;99.90
13310;DHT22;6723;48.256;16.402;2023-02-19T12:53:40;12.90;99.90
13310;DHT22;6723;48.256;16.402;2023-02-19T12:56:16;12.90;99.90
13310;DHT22;6723;48.256;16.402;2023-02-19T12:58:47;12.90;99.90
13310;DHT22;6723;48.256;16.402;2023-02-19T13:01:20;12.90;99.90
13310;DHT22;6723;48.256;16.402;2023-02-19T13:04:05;13.00;99.90
13310;DHT22;6723;48.256;16.402;2023-02-19T13:06:41;12.90;99.90
13310;DHT22;6723;48.256;16.402;2023-02-19T13:09:38;12.90;99.90
13310;DHT22;6723;48.256;16.402;2023-02-19T13:12:38;12.90;99.90
13310;DHT22;6723;48.256;16.402;2023-02-19T13:15:19;12.90;99.90
13310;DHT22;6723;48.256;16.402;2023-02-19T13:17:49;13.00;99.90
13310;DHT22;6723;48.256;16.402;2023-02-19T13:23:22;13.60;99.90
13310;DHT22;6723;48.256;16.402;2023-02-19T13:26:44;13.70;99.90
13310;DHT22;6723;48.256;16.402;2023-02-19T13:29:44;13.80;99.90
13310;DHT22;6723;48.256;16.402;2023-02-19T13:38:00;13.90;99.90
13310;DHT22;6723;48.256;16.402;2023-02-19T13:40:32;14.10;99.90
13310;DHT22;6723;48.256;16.402;2023-02-19T13:43:02;14.00;99.90
13310;DHT22;6723;48.256;16.402;2023-02-19T13:45:40;14.10;99.90
13310;DHT22;6723;48.256;16.402;2023-02-19T13:48:25;14.10;99.90
13310;DHT22;6723;48.256;16.402;2023-02-19T14:04:56;12.90;99.90
13310;DHT22;6723;48.256;16.402;2023-02-19T14:10:07;12.50;99.90
13310;DHT22;6723;48.256;16.402;2023-02-19T14:12:36;12.20;99.90
13310;DHT22;6723;48.256;16.402;2023-02-19T14:18:44;11.70;99.90
13310;DHT22;6723;48.256;16.402;2023-02-19T14:21:25;11.60;99.90
13310;DHT22;6723;48.256;16.402;2023-02-19T14:24:00;11.50;99.90
13310;DHT22;6723;48.256;16.402;2023-02-19T14:26:30;11.50;99.90
13310;DHT22;6723;48.256;16.402;2023-02-19T14:28:59;11.30;99.90
13310;DHT22;6723;48.256;16.402;2023-02-19T14:31:31;11.30;99.90
13310;DHT22;6723;48.256;16.402;2023-02-19T14:34:02;11.10;99.90
13310;DHT22;6723;48.256;16.402;2023-02-19T14:43:01;11.10;99.90
13310;DHT22;6723;48.256;16.402;2023-02-19T14:45:28;11.20;99.90
13310;DHT22;6723;48.256;16.402;2023-02-19T14:47:55;11.30;99.90
13310;DHT22;6723;48.256;16.402;2023-02-19T14:50:29;11.40;99.90
13310;DHT22;6723;48.256;16.402;2023-02-19T14:53:17;11.40;99.90
13310;DHT22;6723;48.256;16.402;2023-02-19T14:55:46;11.50;99.90
13310;DHT22;6723;48.256;16.402;2023-02-19T14:58:17;11.60;99.90
13310;DHT22;6723;48.256;16.402;2023-02-19T15:00:47;11.70;99.90
13310;DHT22;6723;48.256;16.402;2023-02-19T15:06:26;11.80;99.90
13310;DHT22;6723;48.256;16.402;2023-02-19T15:08:56;11.90;99.90
13310;DHT22;6723;48.256;16.402;2023-02-19T15:11:25;11.90;99.90
13310;DHT22;6723;48.256;16.402;2023-02-19T15:13:58;12.00;99.90
13310;DHT22;6723;48.256;16.402;2023-02-19T15:16:26;12.00;99.90
13310;DHT22;6723;48.256;16.402;2023-02-19T15:18:54;12.00;99.90
13310;DHT22;6723;48.256;16.402;2023-02-19T15:24:22;12.00;99.90
13310;DHT22;6723;48.256;16.402;2023-02-19T15:26:50;11.90;99.90
13310;DHT22;6723;48.256;16.402;2023-02-19T15:29:21;11.60;99.90
13310;DHT22;6723;48.256;16.402;2023-02-19T15:31:50;11.50;99.90
13310;DHT22;6723;48.256;16.402;2023-02-19T15:34:29;11.30;99.90
13310;DHT22;6723;48.256;16.402;2023-02-19T15:39:34;11.00;99.90
13310;DHT22;6723;48.256;16.402;2023-02-19T15:42:02;10.90;99.90
13310;DHT22;6723;48.256;16.402;2023-02-19T15:47:26;10.50;99.90
13310;DHT22;6723;48.256;16.402;2023-02-19T15:49:59;10.30;99.90
13310;DHT22;6723;48.256;16.402;2023-02-19T15:52:33;10.20;99.90
13310;DHT22;6723;48.256;16.402;2023-02-19T15:58:20;9.30;99.90
13310;DHT22;6723;48.256;16.402;2023-02-19T16:00:51;9.10;99.90
13310;DHT22;6723;48.256;16.402;2023-02-19T16:03:21;9.20;99.90
13310;DHT22;6723;48.256;16.402;2023-02-19T16:06:01;9.20;99.90
13310;DHT22;6723;48.256;16.402;2023-02-19T16:08:35;9.20;99.90
13310;DHT22;6723;48.256;16.402;2023-02-19T16:13:50;9.10;99.90
13310;DHT22;6723;48.256;16.402;2023-02-19T16:16:35;9.00;99.90
13310;DHT22;6723;48.256;16.402;2023-02-19T16:19:03;9.00;99.90
13310;DHT22;6723;48.256;16.402;2023-02-19T16:21:29;8.90;99.90
13310;DHT22;6723;48.256;16.402;2023-02-19T16:24:25;8.80;99.90
13310;DHT22;6723;48.256;16.402;2023-02-19T16:26:52;8.80;99.90
13310;DHT22;6723;48.256;16.402;2023-02-19T16:29:30;8.80;99.90
13310;DHT22;6723;48.256;16.402;2023-02-19T16:32:02;8.80;99.90
13310;DHT22;6723;48.256;16.402;2023-02-19T16:34:40;8.90;99.90
13310;DHT22;6723;48.256;16.402;2023-02-19T16:45:16;8.90;99.90
13310;DHT22;6723;48.256;16.402;2023-02-19T16:47:42;8.90;99.90
13310;DHT22;6723;48.256;16.402;2023-02-19T16:50:19;8.90;99.90
13310;DHT22;6723;48.256;16.402;2023-02-19T16:53:00;8.90;99.90
13310;DHT22;6723;48.256;16.402;2023-02-19T16:55:27;8.90;99.90
13310;DHT22;6723;48.256;16.402;2023-02-19T16:57:53;8.90;99.90
13310;DHT22;6723;48.256;16.402;2023-02-19T17:02:58;8.90;99.90
13310;DHT22;6723;48.256;16.402;2023-02-19T17:05:26;8.90;99.90
13310;DHT22;6723;48.256;16.402;2023-02-19T17:07:53;9.00;99.90
13310;DHT22;6723;48.256;16.402;2023-02-19T17:10:24;9.00;99.90
13310;DHT22;6723;48.256;16.402;2023-02-19T17:12:51;9.00;99.90
13310;DHT22;6723;48.256;16.402;2023-02-19T17:15:18;8.80;99.90
13310;DHT22;6723;48.256;16.402;2023-02-19T17:17:43;8.80;99.90
13310;DHT22;6723;48.256;16.402;2023-02-19T17:22:42;8.70;99.90
13310;DHT22;6723;48.256;16.402;2023-02-19T17:25:08;8.80;99.90
13310;DHT22;6723;48.256;16.402;2023-02-19T17:27:34;8.70;99.90
13310;DHT22;6723;48.256;16.402;2023-02-19T17:30:00;8.60;99.90
13310;DHT22;6723;48.256;16.402;2023-02-19T17:32:25;8.60;99.90
13310;DHT22;6723;48.256;16.402;2023-02-19T17:34:51;8.50;99.90
13310;DHT22;6723;48.256;16.402;2023-02-19T17:37:17;8.50;99.90
13310;DHT22;6723;48.256;16.402;2023-02-19T17:39:48;8.50;99.90
13310;DHT22;6723;48.256;16.402;2023-02-19T17:42:13;8.50;99.90
13310;DHT22;6723;48.256;16.402;2023-02-19T17:44:39;8.50;99.90
13310;DHT22;6723;48.256;16.402;2023-02-19T17:47:05;8.50;99.90
13310;DHT22;6723;48.256;16.402;2023-02-19T17:49:31;8.50;99.90
13310;DHT22;6723;48.256;16.402;2023-02-19T17:51:57;8.50;99.90
13310;DHT22;6723;48.256;16.402;2023-02-19T17:54:24;8.60;99.90
13310;DHT22;6723;48.256;16.402;2023-02-19T17:56:50;8.50;99.90
13310;DHT22;6723;48.256;16.402;2023-02-19T17:59:15;8.50;99.90
13310;DHT22;6723;48.256;16.402;2023-02-19T18:01:41;8.50;99.90
13310;DHT22;6723;48.256;16.402;2023-02-19T18:04:07;8.50;99.90
13310;DHT22;6723;48.256;16.402;2023-02-19T18:06:33;8.50;99.90
13310;DHT22;6723;48.256;16.402;2023-02-19T18:09:00;8.50;99.90
13310;DHT22;6723;48.256;16.402;2023-02-19T18:11:26;8.50;99.90
13310;DHT22;6723;48.256;16.402;2023-02-19T18:13:52;8.60;99.90
13310;DHT22;6723;48.256;16.402;2023-02-19T18:16:18;8.60;99.90
13310;DHT22;6723;48.256;16.402;2023-02-19T18:18:44;8.60;99.90
13310;DHT22;6723;48.256;16.402;2023-02-19T18:21:11;8.60;99.90
13310;DHT22;6723;48.256;16.402;2023-02-19T18:23:38;8.60;99.90
13310;DHT22;6723;48.256;16.402;2023-02-19T18:26:09;8.70;99.90
13310;DHT22;6723;48.256;16.402;2023-02-19T18:28:36;8.60;99.90
13310;DHT22;6723;48.256;16.402;2023-02-19T18:31:33;8.60;99.90
13310;DHT22;6723;48.256;16.402;2023-02-19T18:34:02;8.60;99.90
13310;DHT22;6723;48.256;16.402;2023-02-19T18:36:27;8.60;99.90
13310;DHT22;6723;48.256;16.402;2023-02-19T18:38:53;8.60;99.90
13310;DHT22;6723;48.256;16.402;2023-02-19T18:41:19;8.60;99.90
13310;DHT22;6723;48.256;16.402;2023-02-19T18:43:45;8.60;99.90
13310;DHT22;6723;48.256;16.402;2023-02-19T18:46:11;8.60;99.90
13310;DHT22;6723;48.256;16.402;2023-02-19T18:48:38;8.60;99.90
13310;DHT22;6723;48.256;16.402;2023-02-19T18:51:04;8.60;99.90
13310;DHT22;6723;48.256;16.402;2023-02-19T18:53:29;8.60;99.90
13310;DHT22;6723;48.256;16.402;2023-02-19T18:55:55;8.60;99.90